createdAt,value
2023-03-27T00:00:35.608Z,63.39
2023-03-27T00:03:08.307Z,65.38
2023-03-27T00:05:40.698Z,64.45
2023-03-27T00:08:13.460Z,64.06
2023-03-27T00:10:48.175Z,64.45
2023-03-27T00:13:19.739Z,64.69
2023-03-27T00:15:54.542Z,62.86
2023-03-27T00:18:28.066Z,63.01
2023-03-27T00:21:03.497Z,63.60
2023-03-27T00:23:34.953Z,62.42
2023-03-27T00:26:06.915Z,62.52
2023-03-27T00:28:38.522Z,62.85
2023-03-27T00:31:15.987Z,64.98
2023-03-27T00:33:47.563Z,65.36
2023-03-27T00:36:19.117Z,63.17
2023-03-27T00:38:53.174Z,63.58
2023-03-27T00:41:25.646Z,63.84
2023-03-27T00:43:58.202Z,63.64
2023-03-27T00:46:44.892Z,63.77
2023-03-27T00:49:16.888Z,62.95
2023-03-27T00:51:51.118Z,63.85
2023-03-27T00:54:29.990Z,65.45
2023-03-27T00:57:07.171Z,63.20
2023-03-27T00:59:41.408Z,65.03
2023-03-27T01:02:13.793Z,65.36
2023-03-27T01:04:47.352Z,65.88
2023-03-27T01:07:20.824Z,65.54
2023-03-27T01:09:52.576Z,66.19
2023-03-27T01:12:34.288Z,67.12
2023-03-27T01:15:17.469Z,68.41
2023-03-27T01:18:17.277Z,67.82
2023-03-27T01:21:26.050Z,66.66
2023-03-27T01:24:28.013Z,66.93
2023-03-27T01:27:31.108Z,67.28
2023-03-27T01:30:20.194Z,66.88
2023-03-27T01:33:00.867Z,67.60
2023-03-27T01:36:08.645Z,67.42
2023-03-27T01:39:36.886Z,66.98
2023-03-27T01:42:29.908Z,66.21
2023-03-27T01:45:17.529Z,67.17
2023-03-27T01:48:17.041Z,67.34
2023-03-27T01:51:06.823Z,66.24
2023-03-27T01:53:46.650Z,66.86
2023-03-27T01:56:32.352Z,66.61
2023-03-27T01:59:18.009Z,67.40
2023-03-27T02:02:22.414Z,66.49
2023-03-27T02:05:10.294Z,66.63
2023-03-27T02:07:51.455Z,67.71
2023-03-27T02:10:35.538Z,66.94
2023-03-27T02:13:23.847Z,66.78
2023-03-27T02:15:58.449Z,66.49
2023-03-27T02:18:36.705Z,66.10
2023-03-27T02:21:08.904Z,67.27
2023-03-27T02:23:41.037Z,67.70
2023-03-27T02:26:13.429Z,68.01
2023-03-27T02:29:35.810Z,67.62
2023-03-27T02:32:36.069Z,67.29
2023-03-27T02:35:46.058Z,67.81
2023-03-27T02:38:27.664Z,66.34
2023-03-27T02:41:25.914Z,66.20
2023-03-27T02:44:15.834Z,65.18
2023-03-27T02:47:07.457Z,65.30
2023-03-27T02:49:48.432Z,65.48
2023-03-27T02:52:32.279Z,64.66
2023-03-27T02:55:12.820Z,65.16
2023-03-27T02:57:51.806Z,64.91
2023-03-27T03:00:29.611Z,65.00
2023-03-27T03:03:37.564Z,65.02
2023-03-27T03:06:11.064Z,64.17
2023-03-27T03:08:43.243Z,64.40
2023-03-27T03:11:15.561Z,64.20
2023-03-27T03:13:47.240Z,63.37
2023-03-27T03:16:20.463Z,62.49
2023-03-27T03:18:52.052Z,63.65
2023-03-27T03:21:24.364Z,65.19
2023-03-27T03:23:57.541Z,64.66
2023-03-27T03:26:30.054Z,64.31
2023-03-27T03:29:01.986Z,63.48
2023-03-27T03:31:43.325Z,63.54
2023-03-27T03:34:18.951Z,63.81
2023-03-27T03:36:50.739Z,63.29
2023-03-27T03:39:22.908Z,62.86
2023-03-27T03:41:54.541Z,62.56
2023-03-27T03:44:26.368Z,62.63
2023-03-27T03:46:57.884Z,62.38
2023-03-27T03:49:29.852Z,59.92
2023-03-27T03:52:04.858Z,59.86
2023-03-27T03:54:38.595Z,61.24
2023-03-27T03:57:10.274Z,60.83
2023-03-27T03:59:41.869Z,59.17
2023-03-27T04:02:28.272Z,60.23
2023-03-27T04:05:00.837Z,59.87
2023-03-27T04:07:41.059Z,59.27
2023-03-27T04:10:15.826Z,59.69
2023-03-27T04:12:51.215Z,60.90
2023-03-27T04:15:22.801Z,59.99
2023-03-27T04:17:54.392Z,59.54
2023-03-27T04:20:31.155Z,58.77
2023-03-27T04:23:03.074Z,59.25
2023-03-27T04:25:34.600Z,59.20
2023-03-27T04:28:06.160Z,59.33
2023-03-27T04:30:38.699Z,59.10
2023-03-27T04:33:18.653Z,60.46
2023-03-27T04:36:05.297Z,59.78
2023-03-27T04:38:39.585Z,59.21
2023-03-27T04:41:11.404Z,58.67
2023-03-27T04:43:46.182Z,57.71
2023-03-27T04:46:19.845Z,57.98
2023-03-27T04:48:51.341Z,57.50
2023-03-27T04:51:25.197Z,57.55
2023-03-27T04:53:56.682Z,57.79
2023-03-27T04:56:30.793Z,58.91
2023-03-27T04:59:06.076Z,56.98
2023-03-27T05:01:37.685Z,55.70
2023-03-27T05:04:11.584Z,55.62
2023-03-27T05:06:43.165Z,55.69
2023-03-27T05:09:14.676Z,56.05
2023-03-27T05:11:49.867Z,55.94
2023-03-27T05:14:23.618Z,55.92
2023-03-27T05:16:57.723Z,54.85
2023-03-27T05:19:32.501Z,54.18
2023-03-27T05:22:04.128Z,54.71
2023-03-27T05:24:35.739Z,54.25
2023-03-27T05:27:07.256Z,54.21
2023-03-27T05:29:47.233Z,55.41
2023-03-27T05:32:21.320Z,54.17
2023-03-27T05:34:54.665Z,54.03
2023-03-27T05:37:29.142Z,54.25
2023-03-27T05:40:00.671Z,54.36
2023-03-27T05:42:32.460Z,54.40
2023-03-27T05:45:04.600Z,53.53
2023-03-27T05:47:53.800Z,53.79
2023-03-27T05:50:29.770Z,54.44
2023-03-27T05:53:10.013Z,53.11
2023-03-27T05:55:41.822Z,55.11
2023-03-27T05:58:13.925Z,53.92
2023-03-27T06:00:45.829Z,53.27
2023-03-27T06:03:17.717Z,53.10
2023-03-27T06:05:49.773Z,53.42
2023-03-27T06:08:21.346Z,52.41
2023-03-27T06:10:55.909Z,53.40
2023-03-27T06:13:28.538Z,53.33
2023-03-27T06:16:00.397Z,52.48
2023-03-27T06:18:33.690Z,52.58
2023-03-27T06:21:05.691Z,52.46
2023-03-27T06:23:37.305Z,52.32
2023-03-27T06:26:08.970Z,52.40
2023-03-27T06:28:40.497Z,52.06
2023-03-27T06:31:12.844Z,52.51
2023-03-27T06:33:44.495Z,50.84
2023-03-27T06:36:16.355Z,51.01
2023-03-27T06:38:47.821Z,51.85
2023-03-27T06:41:19.311Z,52.24
2023-03-27T06:43:50.937Z,52.25
2023-03-27T06:46:27.486Z,51.59
2023-03-27T06:49:01.726Z,52.40
2023-03-27T06:51:33.296Z,51.16
2023-03-27T06:54:04.951Z,51.11
2023-03-27T06:56:36.613Z,49.55
2023-03-27T06:59:08.995Z,48.85
2023-03-27T07:01:40.567Z,46.61
2023-03-27T07:04:12.353Z,45.93
2023-03-27T07:06:43.944Z,44.91
2023-03-27T07:09:15.573Z,46.14
2023-03-27T07:11:50.229Z,45.35
2023-03-27T07:14:24.101Z,44.47
2023-03-27T07:16:55.714Z,45.14
2023-03-27T07:19:27.292Z,46.11
2023-03-27T07:21:58.844Z,46.05
2023-03-27T07:24:30.342Z,46.89
2023-03-27T07:27:01.831Z,46.71
2023-03-27T07:29:34.494Z,45.64
2023-03-27T07:32:09.145Z,44.93
2023-03-27T07:34:41.142Z,44.98
2023-03-27T07:37:14.464Z,44.39
2023-03-27T07:39:46.137Z,43.70
2023-03-27T07:42:17.713Z,43.80
2023-03-27T07:44:49.427Z,44.09
2023-03-27T07:47:21.331Z,43.80
2023-03-27T07:49:52.879Z,43.41
2023-03-27T07:52:24.428Z,43.04
2023-03-27T07:54:56.880Z,42.89
2023-03-27T07:57:28.522Z,43.37
2023-03-27T08:00:00.163Z,43.58
2023-03-27T08:02:34.932Z,43.96
2023-03-27T08:05:08.580Z,43.49
2023-03-27T08:07:45.529Z,43.55
2023-03-27T08:10:17.093Z,44.26
2023-03-27T08:12:48.746Z,44.28
2023-03-27T08:15:20.276Z,44.41
2023-03-27T08:17:54.645Z,43.48
2023-03-27T08:20:30.371Z,41.68
2023-03-27T08:23:02.013Z,40.41
2023-03-27T08:25:34.607Z,39.42
2023-03-27T08:28:06.237Z,40.21
2023-03-27T08:30:37.796Z,39.55
2023-03-27T08:33:09.743Z,39.76
2023-03-27T08:35:42.170Z,37.76
2023-03-27T08:38:25.721Z,39.89
2023-03-27T08:41:01.652Z,38.48
2023-03-27T08:43:44.288Z,38.75
2023-03-27T08:46:21.798Z,37.26
2023-03-27T08:49:25.649Z,39.01
2023-03-27T08:52:20.162Z,38.60
2023-03-27T08:55:13.889Z,39.81
2023-03-27T08:57:52.890Z,39.06
2023-03-27T09:00:32.104Z,38.84
2023-03-27T09:03:35.591Z,38.78
2023-03-27T09:06:34.267Z,37.44
2023-03-27T09:09:47.980Z,38.59
2023-03-27T09:13:17.556Z,36.73
2023-03-27T09:16:22.053Z,35.90
2023-03-27T09:19:31.254Z,35.61
2023-03-27T09:22:24.124Z,35.17
2023-03-27T09:25:03.441Z,36.33
2023-03-27T09:27:37.806Z,35.01
2023-03-27T09:30:26.526Z,35.37
2023-03-27T09:33:06.020Z,36.50
2023-03-27T09:35:39.769Z,36.25
2023-03-27T09:38:30.742Z,35.22
2023-03-27T09:41:13.252Z,35.09
2023-03-27T09:44:21.203Z,35.16
2023-03-27T09:47:17.424Z,34.53
2023-03-27T09:49:57.306Z,35.07
2023-03-27T09:52:36.527Z,34.52
2023-03-27T09:55:31.909Z,35.99
2023-03-27T09:58:28.004Z,36.06
2023-03-27T10:01:23.067Z,36.89
2023-03-27T10:04:00.051Z,36.00
2023-03-27T10:06:49.808Z,36.22
2023-03-27T10:09:27.860Z,34.79
2023-03-27T10:12:05.274Z,35.95
2023-03-27T10:14:42.764Z,37.78
2023-03-27T10:17:41.860Z,38.07
2023-03-27T10:20:21.205Z,36.19
2023-03-27T10:22:57.848Z,36.98
2023-03-27T10:25:39.413Z,36.97
2023-03-27T10:28:36.827Z,37.88
2023-03-27T10:31:36.426Z,37.57
2023-03-27T10:34:41.397Z,38.16
2023-03-27T10:37:29.354Z,34.96
2023-03-27T10:40:09.568Z,34.63
2023-03-27T10:42:41.556Z,31.63
2023-03-27T10:45:23.523Z,33.53
2023-03-27T10:47:59.444Z,36.04
2023-03-27T10:50:56.596Z,35.50
2023-03-27T10:53:42.996Z,34.01
2023-03-27T10:56:33.284Z,34.44
2023-03-27T10:59:40.626Z,35.93
2023-03-27T11:02:57.760Z,35.37
2023-03-27T11:05:37.433Z,34.81
2023-03-27T11:08:16.790Z,32.71
2023-03-27T11:10:50.599Z,32.38
2023-03-27T11:13:32.159Z,31.08
2023-03-27T11:16:26.419Z,31.08
2023-03-27T11:19:22.429Z,29.65
2023-03-27T11:22:01.303Z,29.88
2023-03-27T11:25:06.132Z,31.08
2023-03-27T11:28:00.512Z,31.59
2023-03-27T11:30:44.420Z,33.54
2023-03-27T11:33:40.693Z,33.29
2023-03-27T11:36:29.789Z,33.36
2023-03-27T11:39:18.348Z,32.25
2023-03-27T11:42:02.389Z,29.51
2023-03-27T11:44:33.932Z,30.61
2023-03-27T11:47:20.486Z,29.65
2023-03-27T11:50:15.004Z,27.90
2023-03-27T11:53:28.753Z,27.83
2023-03-27T11:56:31.895Z,27.78
2023-03-27T11:59:18.977Z,29.00
2023-03-27T12:02:45.498Z,28.94
2023-03-27T12:05:48.298Z,29.35
2023-03-27T12:08:52.562Z,29.90
2023-03-27T12:11:26.338Z,31.58
2023-03-27T12:14:18.407Z,30.59
2023-03-27T12:17:02.994Z,32.07
2023-03-27T12:20:13.022Z,29.47
2023-03-27T12:23:23.702Z,30.41
2023-03-27T12:26:01.233Z,27.30
2023-03-27T12:29:04.108Z,25.32
2023-03-27T12:32:27.432Z,27.80
2023-03-27T12:35:06.451Z,29.01
2023-03-27T12:37:50.455Z,28.19
2023-03-27T12:40:35.028Z,29.04
2023-03-27T12:43:21.912Z,29.70
2023-03-27T12:46:15.806Z,32.08
2023-03-27T12:49:05.964Z,30.66
2023-03-27T12:51:43.784Z,29.35
2023-03-27T12:54:28.441Z,27.52
2023-03-27T12:57:13.208Z,27.65
2023-03-27T13:00:10.280Z,27.85
2023-03-27T13:03:23.288Z,28.80
2023-03-27T13:06:36.813Z,33.69
2023-03-27T13:09:29.322Z,34.21
2023-03-27T13:12:45.276Z,33.56
2023-03-27T13:16:09.157Z,34.59
2023-03-27T13:19:08.733Z,35.84
2023-03-27T13:22:23.655Z,37.98
2023-03-27T13:25:59.993Z,36.08
2023-03-27T13:28:37.896Z,34.33
2023-03-27T13:31:15.592Z,33.45
2023-03-27T13:34:07.544Z,31.04
2023-03-27T13:37:06.485Z,33.02
2023-03-27T13:39:59.325Z,31.68
2023-03-27T13:42:32.469Z,32.02
2023-03-27T13:45:31.215Z,32.84
2023-03-27T13:48:27.076Z,31.60
2023-03-27T13:51:16.910Z,31.89
2023-03-27T13:54:24.026Z,30.86
2023-03-27T13:57:31.676Z,31.48
2023-03-27T14:01:01.114Z,32.00
2023-03-27T14:04:00.753Z,32.19
2023-03-27T14:07:24.963Z,28.01
2023-03-27T14:10:47.890Z,29.61
2023-03-27T14:13:45.818Z,28.34
2023-03-27T14:17:40.016Z,29.84
2023-03-27T14:20:39.707Z,28.06
2023-03-27T14:23:30.691Z,30.00
2023-03-27T14:26:11.904Z,28.86
2023-03-27T14:29:02.249Z,28.97
2023-03-27T14:31:35.821Z,31.09
2023-03-27T14:34:20.144Z,27.83
2023-03-27T14:36:52.329Z,27.58
2023-03-27T14:39:27.901Z,27.36
2023-03-27T14:42:02.324Z,27.58
2023-03-27T14:44:33.900Z,26.58
2023-03-27T14:47:12.886Z,27.58
2023-03-27T14:49:50.245Z,26.73
2023-03-27T14:52:30.110Z,27.29
2023-03-27T14:55:03.874Z,26.85
2023-03-27T14:57:35.780Z,27.56
2023-03-27T15:00:16.288Z,29.54
2023-03-27T15:02:52.246Z,29.26
2023-03-27T15:05:23.956Z,30.35
2023-03-27T15:07:55.793Z,30.39
2023-03-27T15:10:32.165Z,28.75
2023-03-27T15:13:03.786Z,30.62
2023-03-27T15:15:39.812Z,29.91
2023-03-27T15:18:28.279Z,30.25
2023-03-27T15:21:06.133Z,28.92
2023-03-27T15:23:45.817Z,26.77
2023-03-27T15:26:35.086Z,27.61
2023-03-27T15:29:29.573Z,29.95
2023-03-27T15:32:08.664Z,31.31
2023-03-27T15:34:47.866Z,32.88
2023-03-27T15:37:23.277Z,33.20
2023-03-27T15:40:36.921Z,30.42
2023-03-27T15:43:14.818Z,30.02
2023-03-27T15:46:00.790Z,30.70
2023-03-27T15:48:45.571Z,31.68
2023-03-27T15:51:20.282Z,32.03
2023-03-27T15:53:55.708Z,31.54
2023-03-27T15:56:43.060Z,31.27
2023-03-27T15:59:18.500Z,31.98
2023-03-27T16:02:02.331Z,35.30
2023-03-27T16:04:58.103Z,35.02
2023-03-27T16:07:46.475Z,34.98
2023-03-27T16:10:32.881Z,32.91
2023-03-27T16:13:06.463Z,32.77
2023-03-27T16:15:45.494Z,33.55
2023-03-27T16:18:24.267Z,31.25
2023-03-27T16:21:13.436Z,32.42
2023-03-27T16:23:44.988Z,31.62
2023-03-27T16:26:22.641Z,33.15
2023-03-27T16:29:01.987Z,32.81
2023-03-27T16:31:33.585Z,32.64
2023-03-27T16:34:21.947Z,32.06
2023-03-27T16:36:53.796Z,31.36
2023-03-27T16:39:25.551Z,31.55
2023-03-27T16:41:57.090Z,32.63
2023-03-27T16:44:28.680Z,31.88
2023-03-27T16:47:00.258Z,32.14
2023-03-27T16:49:31.821Z,32.03
2023-03-27T16:52:04.402Z,32.12
2023-03-27T16:54:39.084Z,31.42
2023-03-27T16:57:11.302Z,31.98
2023-03-27T16:59:42.858Z,31.73
2023-03-27T17:02:14.375Z,30.73
2023-03-27T17:04:46.592Z,30.85
2023-03-27T17:07:22.130Z,32.24
2023-03-27T17:09:54.110Z,33.02
2023-03-27T17:12:25.920Z,31.89
2023-03-27T17:14:59.685Z,33.03
2023-03-27T17:17:31.799Z,31.80
2023-03-27T17:20:06.375Z,32.18
2023-03-27T17:22:41.185Z,32.27
2023-03-27T17:25:12.806Z,31.48
2023-03-27T17:27:47.415Z,31.68
2023-03-27T17:30:30.523Z,32.93
2023-03-27T17:33:09.516Z,32.22
2023-03-27T17:35:44.197Z,31.99
2023-03-27T17:38:19.135Z,32.60
2023-03-27T17:40:51.438Z,31.92
2023-03-27T17:43:23.119Z,32.25
2023-03-27T17:45:54.853Z,32.29
2023-03-27T17:48:26.952Z,31.39
2023-03-27T17:51:08.170Z,32.10
2023-03-27T17:53:41.110Z,32.86
2023-03-27T17:56:19.825Z,32.97
2023-03-27T17:58:51.739Z,33.61
2023-03-27T18:01:24.261Z,34.78
2023-03-27T18:03:57.822Z,33.73
2023-03-27T18:06:29.475Z,32.87
2023-03-27T18:09:01.064Z,32.09
2023-03-27T18:11:32.651Z,33.75
2023-03-27T18:14:06.699Z,34.01
2023-03-27T18:16:38.302Z,35.11
2023-03-27T18:19:10.039Z,34.23
2023-03-27T18:21:41.743Z,35.39
2023-03-27T18:24:13.318Z,35.17
2023-03-27T18:26:44.833Z,35.23
2023-03-27T18:29:16.389Z,36.90
2023-03-27T18:31:48.232Z,39.11
2023-03-27T18:34:20.033Z,39.60
2023-03-27T18:36:51.803Z,40.46
2023-03-27T18:39:25.463Z,41.67
2023-03-27T18:42:01.446Z,40.73
2023-03-27T18:44:33.038Z,41.93
2023-03-27T18:47:04.627Z,43.24
2023-03-27T18:49:38.783Z,43.07
2023-03-27T18:52:11.949Z,42.63
2023-03-27T18:54:43.512Z,42.95
2023-03-27T18:57:19.995Z,43.98
2023-03-27T18:59:52.173Z,43.94
2023-03-27T19:02:24.206Z,43.75
2023-03-27T19:04:56.029Z,43.85
2023-03-27T19:07:30.320Z,44.42
2023-03-27T19:10:02.204Z,43.97
2023-03-27T19:12:35.048Z,43.87
2023-03-27T19:15:19.411Z,44.43
2023-03-27T19:17:52.010Z,44.65
2023-03-27T19:20:23.693Z,47.91
2023-03-27T19:22:55.346Z,51.29
2023-03-27T19:25:27.816Z,53.85
2023-03-27T19:28:03.459Z,53.65
2023-03-27T19:30:36.168Z,53.30
2023-03-27T19:33:08.800Z,52.45
2023-03-27T19:35:40.930Z,51.98
2023-03-27T19:38:12.520Z,51.46
2023-03-27T19:40:45.178Z,52.31
2023-03-27T19:43:18.037Z,53.28
2023-03-27T19:46:14.332Z,53.68
2023-03-27T19:48:49.580Z,53.81
2023-03-27T19:51:21.408Z,52.92
2023-03-27T19:53:52.943Z,53.76
2023-03-27T19:56:24.491Z,53.49
2023-03-27T19:58:56.189Z,52.90
2023-03-27T20:01:28.505Z,53.38
2023-03-27T20:04:00.913Z,54.49
2023-03-27T20:06:33.916Z,54.24
2023-03-27T20:09:06.516Z,54.75
2023-03-27T20:11:38.265Z,54.80
2023-03-27T20:14:13.229Z,56.12
2023-03-27T20:16:44.764Z,56.25
2023-03-27T20:19:16.887Z,56.45
2023-03-27T20:21:48.323Z,55.45
2023-03-27T20:24:19.891Z,56.13
2023-03-27T20:26:54.764Z,56.16
2023-03-27T20:29:26.492Z,56.80
2023-03-27T20:31:58.015Z,56.10
2023-03-27T20:34:29.703Z,57.20
2023-03-27T20:37:03.511Z,57.08
2023-03-27T20:39:35.000Z,56.70
2023-03-27T20:42:09.916Z,56.09
2023-03-27T20:44:43.994Z,55.28
2023-03-27T20:47:19.017Z,55.45
2023-03-27T20:49:50.580Z,54.92
2023-03-27T20:52:22.855Z,55.46
2023-03-27T20:54:55.146Z,57.24
2023-03-27T20:57:26.759Z,57.07
2023-03-27T20:59:58.269Z,56.56
2023-03-27T21:02:30.015Z,56.86
2023-03-27T21:05:02.832Z,57.72
2023-03-27T21:07:38.044Z,59.03
2023-03-27T21:10:11.066Z,58.68
2023-03-27T21:12:42.925Z,58.94
2023-03-27T21:15:14.951Z,58.23
2023-03-27T21:17:46.585Z,57.73
2023-03-27T21:20:18.454Z,58.52
2023-03-27T21:22:52.693Z,58.16
2023-03-27T21:25:24.550Z,58.70
2023-03-27T21:27:56.475Z,58.74
2023-03-27T21:30:46.571Z,57.86
2023-03-27T21:33:20.114Z,58.64
2023-03-27T21:35:51.749Z,59.78
2023-03-27T21:38:23.387Z,60.07
2023-03-27T21:40:54.882Z,60.48
2023-03-27T21:43:26.647Z,61.60
2023-03-27T21:46:01.713Z,60.44
2023-03-27T21:48:33.650Z,60.15
2023-03-27T21:51:08.305Z,60.39
2023-03-27T21:53:41.148Z,60.59
2023-03-27T21:56:13.263Z,60.92
2023-03-27T21:58:44.824Z,60.18
2023-03-27T22:01:16.572Z,60.19
2023-03-27T22:03:48.097Z,59.96
2023-03-27T22:06:19.641Z,58.42
2023-03-27T22:08:51.212Z,58.46
2023-03-27T22:11:22.925Z,59.53
2023-03-27T22:13:55.084Z,59.66
2023-03-27T22:16:27.084Z,59.62
2023-03-27T22:18:58.827Z,60.11
2023-03-27T22:21:31.224Z,61.08
2023-03-27T22:24:03.154Z,60.93
2023-03-27T22:26:39.029Z,61.18
2023-03-27T22:29:10.744Z,62.13
2023-03-27T22:31:42.346Z,61.90
2023-03-27T22:34:18.309Z,62.87
2023-03-27T22:36:50.976Z,63.13
2023-03-27T22:39:31.444Z,62.17
2023-03-27T22:42:05.192Z,62.15
2023-03-27T22:44:37.836Z,61.74
2023-03-27T22:47:22.920Z,62.29
2023-03-27T22:50:04.892Z,62.11
2023-03-27T22:52:47.221Z,62.51
2023-03-27T22:55:20.335Z,61.70
2023-03-27T23:01:08.169Z,62.51
2023-03-27T23:03:55.897Z,62.56
2023-03-27T23:06:31.305Z,62.97
2023-03-27T23:09:30.727Z,63.79
2023-03-27T23:12:19.631Z,62.79
2023-03-27T23:15:35.118Z,63.48
2023-03-27T23:18:24.648Z,63.71
2023-03-27T23:20:58.564Z,63.26
2023-03-27T23:23:32.618Z,64.42
2023-03-27T23:26:06.178Z,64.25
2023-03-27T23:28:40.962Z,64.48
2023-03-27T23:31:16.405Z,64.54
2023-03-27T23:33:50.416Z,64.58
2023-03-27T23:36:24.758Z,65.10
2023-03-27T23:38:56.621Z,65.40
2023-03-27T23:41:29.347Z,64.85
2023-03-27T23:44:01.097Z,64.50
2023-03-27T23:46:33.788Z,64.40
2023-03-27T23:49:05.646Z,63.52
2023-03-27T23:51:37.152Z,62.02
2023-03-27T23:54:08.764Z,61.54
2023-03-27T23:56:40.296Z,60.63
2023-03-27T23:59:12.035Z,60.72
